createdAt,value
2022-09-24T00:00:09.961Z,9.37
2022-09-24T00:01:26.025Z,9.38
2022-09-24T00:02:30.509Z,9.31
2022-09-24T00:03:35.085Z,9.36
2022-09-24T00:04:39.342Z,9.36
2022-09-24T00:05:43.047Z,9.35
2022-09-24T00:06:49.129Z,9.35
2022-09-24T00:07:53.099Z,9.29
2022-09-24T00:08:58.229Z,9.30
2022-09-24T00:10:02.882Z,9.27
2022-09-24T00:11:08.459Z,9.23
2022-09-24T00:12:13.758Z,9.22
2022-09-24T00:13:19.072Z,9.05
2022-09-24T00:14:23.085Z,9.16
2022-09-24T00:15:26.978Z,9.15
2022-09-24T00:16:34.214Z,9.13
2022-09-24T00:17:37.998Z,9.02
2022-09-24T00:18:42.939Z,9.06
2022-09-24T00:19:46.612Z,9.02
2022-09-24T00:20:50.747Z,9.02
2022-09-24T00:21:54.713Z,9.01
2022-09-24T00:22:58.346Z,9.02
2022-09-24T00:24:09.794Z,9.05
2022-09-24T00:25:32.330Z,9.04
2022-09-24T00:26:52.236Z,9.03
2022-09-24T00:27:56.069Z,9.03
2022-09-24T00:29:00.521Z,9.02
2022-09-24T00:30:04.878Z,9.02
2022-09-24T00:31:08.915Z,9.00
2022-09-24T00:32:13.669Z,8.99
2022-09-24T00:33:17.444Z,9.01
2022-09-24T00:34:22.113Z,9.01
2022-09-24T00:35:26.542Z,9.01
2022-09-24T00:36:30.463Z,8.86
2022-09-24T00:37:34.473Z,9.01
2022-09-24T00:38:38.174Z,8.97
2022-09-24T00:39:42.006Z,9.02
2022-09-24T00:40:45.924Z,8.98
2022-09-24T00:41:49.759Z,9.00
2022-09-24T00:42:53.719Z,8.97
2022-09-24T00:43:58.910Z,8.93
2022-09-24T00:45:04.424Z,8.98
2022-09-24T00:46:29.001Z,8.97
2022-09-24T00:47:41.159Z,8.92
2022-09-24T00:48:47.498Z,8.97
2022-09-24T00:49:52.426Z,8.97
2022-09-24T00:50:56.228Z,8.94
2022-09-24T00:51:59.947Z,8.92
2022-09-24T00:53:15.455Z,8.86
2022-09-24T00:54:27.251Z,8.92
2022-09-24T00:55:36.987Z,8.86
2022-09-24T00:56:45.117Z,8.90
2022-09-24T00:57:56.568Z,8.91
2022-09-24T00:59:03.725Z,8.79
2022-09-24T01:00:08.662Z,8.90
2022-09-24T01:01:13.098Z,8.83
2022-09-24T01:02:16.864Z,8.80
2022-09-24T01:03:25.613Z,8.87
2022-09-24T01:04:29.357Z,8.70
2022-09-24T01:05:34.283Z,8.80
2022-09-24T01:06:38.857Z,8.83
2022-09-24T01:07:42.741Z,8.82
2022-09-24T01:08:47.593Z,8.71
2022-09-24T01:09:51.661Z,8.69
2022-09-24T01:11:38.105Z,8.79
2022-09-24T01:12:59.801Z,8.68
2022-09-24T01:14:34.157Z,8.76
2022-09-24T01:15:52.168Z,8.51
2022-09-24T01:17:29.886Z,8.72
2022-09-24T01:19:01.785Z,8.71
2022-09-24T01:20:29.976Z,8.66
2022-09-24T01:21:43.524Z,8.34
2022-09-24T01:23:15.084Z,8.56
2022-09-24T01:24:41.489Z,8.54
2022-09-24T01:26:23.293Z,8.44
2022-09-24T01:27:48.066Z,8.49
2022-09-24T01:29:12.841Z,8.48
2022-09-24T01:30:17.365Z,8.43
2022-09-24T01:31:34.453Z,8.30
2022-09-24T01:32:57.469Z,8.28
2022-09-24T01:34:06.223Z,8.23
2022-09-24T01:35:45.253Z,8.37
2022-09-24T01:36:52.736Z,8.34
2022-09-24T01:38:07.187Z,8.21
2022-09-24T01:39:14.699Z,8.29
2022-09-24T01:40:22.652Z,8.33
2022-09-24T01:41:27.433Z,8.28
2022-09-24T01:42:33.815Z,8.15
2022-09-24T01:43:38.717Z,8.20
2022-09-24T01:44:44.683Z,8.34
2022-09-24T01:45:49.256Z,8.34
2022-09-24T01:46:54.683Z,8.30
2022-09-24T01:48:01.414Z,8.33
2022-09-24T01:49:07.453Z,8.19
2022-09-24T01:50:17.697Z,8.13
2022-09-24T01:51:38.363Z,8.29
2022-09-24T01:52:58.596Z,8.25
2022-09-24T01:54:16.454Z,8.12
2022-09-24T01:55:27.668Z,8.21
2022-09-24T01:56:41.608Z,8.17
2022-09-24T01:58:02.108Z,8.02
2022-09-24T01:59:33.172Z,8.16
2022-09-24T02:00:44.677Z,8.00
2022-09-24T02:01:56.893Z,7.99
2022-09-24T02:03:15.258Z,8.18
2022-09-24T02:04:22.633Z,8.10
2022-09-24T02:05:41.950Z,8.18
2022-09-24T02:06:56.129Z,8.09
2022-09-24T02:08:15.495Z,8.20
2022-09-24T02:09:44.088Z,8.03
2022-09-24T02:11:04.159Z,8.20
2022-09-24T02:12:29.833Z,8.15
2022-09-24T02:13:46.920Z,8.05
2022-09-24T02:15:06.808Z,7.94
2022-09-24T02:16:16.595Z,8.19
2022-09-24T02:17:24.473Z,8.03
2022-09-24T02:18:37.504Z,8.11
2022-09-24T02:19:43.176Z,8.08
2022-09-24T02:20:49.249Z,8.12
2022-09-24T02:21:55.248Z,8.21
2022-09-24T02:23:00.016Z,8.14
2022-09-24T02:24:12.924Z,8.20
2022-09-24T02:25:30.946Z,8.22
2022-09-24T02:26:34.960Z,8.21
2022-09-24T02:27:39.422Z,8.21
2022-09-24T02:28:43.562Z,8.18
2022-09-24T02:29:48.235Z,8.17
2022-09-24T02:31:03.677Z,7.99
2022-09-24T02:32:13.416Z,8.20
2022-09-24T02:33:37.703Z,8.03
2022-09-24T02:34:56.210Z,8.09
2022-09-24T02:36:00.668Z,8.10
2022-09-24T02:37:17.141Z,7.99
2022-09-24T02:38:21.458Z,8.08
2022-09-24T02:39:26.048Z,7.94
2022-09-24T02:40:30.616Z,8.08
2022-09-24T02:41:36.205Z,8.09
2022-09-24T02:42:42.672Z,7.90
2022-09-24T02:43:47.701Z,7.95
2022-09-24T02:44:52.671Z,7.89
2022-09-24T02:45:56.672Z,7.84
2022-09-24T02:47:01.210Z,7.95
2022-09-24T02:48:05.181Z,7.95
2022-09-24T02:49:13.791Z,7.96
2022-09-24T02:50:18.402Z,7.91
2022-09-24T02:51:22.416Z,8.10
2022-09-24T02:52:26.305Z,7.90
2022-09-24T02:53:31.297Z,7.90
2022-09-24T02:54:35.280Z,8.09
2022-09-24T02:55:39.424Z,8.03
2022-09-24T02:56:43.132Z,8.02
2022-09-24T02:57:47.681Z,8.03
2022-09-24T02:58:51.895Z,8.06
2022-09-24T02:59:55.930Z,7.90
2022-09-24T03:00:59.901Z,8.07
2022-09-24T03:02:03.755Z,7.95
2022-09-24T03:03:07.553Z,8.06
2022-09-24T03:04:11.976Z,8.11
2022-09-24T03:05:18.384Z,7.96
2022-09-24T03:06:22.435Z,8.00
2022-09-24T03:07:26.104Z,7.83
2022-09-24T03:08:31.456Z,8.01
2022-09-24T03:09:35.452Z,7.91
2022-09-24T03:10:39.598Z,8.11
2022-09-24T03:11:43.300Z,8.07
2022-09-24T03:12:46.983Z,8.07
2022-09-24T03:13:52.376Z,8.08
2022-09-24T03:14:56.374Z,8.06
2022-09-24T03:16:00.376Z,8.06
2022-09-24T03:17:04.567Z,8.00
2022-09-24T03:18:08.469Z,7.92
2022-09-24T03:19:12.311Z,7.85
2022-09-24T03:20:16.207Z,7.90
2022-09-24T03:21:22.707Z,7.95
2022-09-24T03:22:26.535Z,7.88
2022-09-24T03:23:31.104Z,8.01
2022-09-24T03:24:34.896Z,8.03
2022-09-24T03:25:39.135Z,8.03
2022-09-24T03:26:43.060Z,7.88
2022-09-24T03:27:47.778Z,7.92
2022-09-24T03:28:51.643Z,7.89
2022-09-24T03:30:13.836Z,7.79
2022-09-24T03:31:18.028Z,7.94
2022-09-24T03:32:21.936Z,7.97
2022-09-24T03:33:36.225Z,7.91
2022-09-24T03:34:39.896Z,7.88
2022-09-24T03:35:43.625Z,7.78
2022-09-24T03:36:47.451Z,7.84
2022-09-24T03:37:51.291Z,7.90
2022-09-24T03:38:58.094Z,7.86
2022-09-24T03:40:02.608Z,7.84
2022-09-24T03:41:08.418Z,7.84
2022-09-24T03:42:12.932Z,7.77
2022-09-24T03:43:17.743Z,7.79
2022-09-24T03:44:21.476Z,7.83
2022-09-24T03:45:26.034Z,7.69
2022-09-24T03:46:30.611Z,7.82
2022-09-24T03:47:34.802Z,7.78
2022-09-24T03:48:41.177Z,7.82
2022-09-24T03:49:44.877Z,7.76
2022-09-24T03:50:50.550Z,7.79
2022-09-24T03:51:54.490Z,7.72
2022-09-24T03:52:58.618Z,7.83
2022-09-24T03:54:02.443Z,7.67
2022-09-24T03:55:07.653Z,7.82
2022-09-24T03:56:12.927Z,7.84
2022-09-24T03:57:16.905Z,7.85
2022-09-24T03:58:21.048Z,7.81
2022-09-24T03:59:25.054Z,7.68
2022-09-24T04:00:28.865Z,7.88
2022-09-24T04:01:33.554Z,7.70
2022-09-24T04:02:37.644Z,7.80
2022-09-24T04:03:41.762Z,7.85
2022-09-24T04:04:46.047Z,7.74
2022-09-24T04:05:52.773Z,7.92
2022-09-24T04:06:57.561Z,7.86
2022-09-24T04:08:02.502Z,7.81
2022-09-24T04:09:06.338Z,7.89
2022-09-24T04:10:10.562Z,7.89
2022-09-24T04:11:14.340Z,7.85
2022-09-24T04:12:18.847Z,7.85
2022-09-24T04:13:23.008Z,7.86
2022-09-24T04:14:26.922Z,7.85
2022-09-24T04:15:31.341Z,7.66
2022-09-24T04:16:35.089Z,7.76
2022-09-24T04:17:39.453Z,7.78
2022-09-24T04:18:43.338Z,7.86
2022-09-24T04:19:47.342Z,7.84
2022-09-24T04:20:51.233Z,7.81
2022-09-24T04:21:55.214Z,7.78
2022-09-24T04:23:00.210Z,7.67
2022-09-24T04:24:05.261Z,7.88
2022-09-24T04:25:14.607Z,7.73
2022-09-24T04:26:19.019Z,7.88
2022-09-24T04:27:22.790Z,7.86
2022-09-24T04:28:26.549Z,7.85
2022-09-24T04:29:30.503Z,7.70
2022-09-24T04:30:36.718Z,7.86
2022-09-24T04:31:40.878Z,7.73
2022-09-24T04:32:45.144Z,7.88
2022-09-24T04:33:48.889Z,7.72
2022-09-24T04:34:52.715Z,7.91
2022-09-24T04:35:56.535Z,7.78
2022-09-24T04:37:00.420Z,7.91
2022-09-24T04:38:06.996Z,7.95
2022-09-24T04:39:11.661Z,7.94
2022-09-24T04:40:17.146Z,7.79
2022-09-24T04:41:22.047Z,7.79
2022-09-24T04:42:26.390Z,7.94
2022-09-24T04:43:30.111Z,7.89
2022-09-24T04:44:33.770Z,7.96
2022-09-24T04:45:38.605Z,7.89
2022-09-24T04:46:43.209Z,7.78
2022-09-24T04:47:52.822Z,7.89
2022-09-24T04:48:57.764Z,7.79
2022-09-24T04:50:02.836Z,7.83
2022-09-24T04:51:08.890Z,7.91
2022-09-24T04:52:16.537Z,7.90
2022-09-24T04:53:20.592Z,8.04
2022-09-24T04:54:25.791Z,8.05
2022-09-24T04:55:29.727Z,7.86
2022-09-24T04:56:33.695Z,8.02
2022-09-24T04:57:37.692Z,8.03
2022-09-24T04:58:41.783Z,8.01
2022-09-24T04:59:45.600Z,8.07
2022-09-24T05:00:49.367Z,8.13
2022-09-24T05:01:55.322Z,7.95
2022-09-24T05:03:04.053Z,8.01
2022-09-24T05:04:08.248Z,7.94
2022-09-24T05:05:13.580Z,8.20
2022-09-24T05:06:17.263Z,8.24
2022-09-24T05:07:21.116Z,8.16
2022-09-24T05:08:25.123Z,8.12
2022-09-24T05:09:30.321Z,8.23
2022-09-24T05:10:34.711Z,8.29
2022-09-24T05:11:38.444Z,8.21
2022-09-24T05:12:42.239Z,8.17
2022-09-24T05:13:57.996Z,8.23
2022-09-24T05:15:02.426Z,8.37
2022-09-24T05:16:06.695Z,8.33
2022-09-24T05:17:10.817Z,8.41
2022-09-24T05:18:14.627Z,8.23
2022-09-24T05:19:19.067Z,8.25
2022-09-24T05:20:23.782Z,8.49
2022-09-24T05:21:27.772Z,8.43
2022-09-24T05:22:31.990Z,8.40
2022-09-24T05:23:36.399Z,8.52
2022-09-24T05:24:40.774Z,8.36
2022-09-24T05:26:04.189Z,8.37
2022-09-24T05:27:10.168Z,8.37
2022-09-24T05:28:14.337Z,8.59
2022-09-24T05:29:19.729Z,8.55
2022-09-24T05:30:26.538Z,8.57
2022-09-24T05:31:30.889Z,8.62
2022-09-24T05:32:37.177Z,8.63
2022-09-24T05:33:40.853Z,8.52
2022-09-24T05:34:46.079Z,8.57
2022-09-24T05:35:58.625Z,8.72
2022-09-24T05:37:05.255Z,8.60
2022-09-24T05:38:09.127Z,8.64
2022-09-24T05:39:14.357Z,8.69
2022-09-24T05:40:37.506Z,8.82
2022-09-24T05:41:41.874Z,8.77
2022-09-24T05:42:46.944Z,8.89
2022-09-24T05:43:51.216Z,8.66
2022-09-24T05:44:55.440Z,8.90
2022-09-24T05:45:59.353Z,8.95
2022-09-24T05:47:03.800Z,9.01
2022-09-24T05:48:08.739Z,9.00
2022-09-24T05:49:12.640Z,9.09
2022-09-24T05:50:16.592Z,9.20
2022-09-24T05:51:20.442Z,9.05
2022-09-24T05:52:24.922Z,9.27
2022-09-24T05:53:30.119Z,9.34
2022-09-24T05:54:33.927Z,9.33
2022-09-24T05:55:37.870Z,9.40
2022-09-24T05:56:41.727Z,9.63
2022-09-24T05:57:45.794Z,9.61
2022-09-24T05:58:50.914Z,9.81
2022-09-24T05:59:54.892Z,9.85
2022-09-24T06:01:03.695Z,9.92
2022-09-24T06:02:09.309Z,9.95
2022-09-24T06:03:17.165Z,10.15
2022-09-24T06:04:23.598Z,10.28
2022-09-24T06:05:29.229Z,10.21
2022-09-24T06:06:33.501Z,10.41
2022-09-24T06:07:37.890Z,10.40
2022-09-24T06:08:41.938Z,10.40
2022-09-24T06:09:48.082Z,10.59
2022-09-24T06:10:52.191Z,10.79
2022-09-24T06:11:57.163Z,10.80
2022-09-24T06:13:01.680Z,10.93
2022-09-24T06:14:07.111Z,11.10
2022-09-24T06:15:12.767Z,11.02
2022-09-24T06:16:16.582Z,11.16
2022-09-24T06:17:24.075Z,11.36
2022-09-24T06:18:27.904Z,11.40
2022-09-24T06:19:31.941Z,11.36
2022-09-24T06:20:36.292Z,11.36
2022-09-24T06:21:41.162Z,11.42
2022-09-24T06:22:45.688Z,11.62
2022-09-24T06:23:49.802Z,11.60
2022-09-24T06:24:54.536Z,11.69
2022-09-24T06:25:59.278Z,11.85
2022-09-24T06:27:04.440Z,11.81
2022-09-24T06:28:09.066Z,11.74
2022-09-24T06:29:13.352Z,11.87
2022-09-24T06:30:17.705Z,11.89
2022-09-24T06:31:22.485Z,11.87
2022-09-24T06:32:26.883Z,12.13
2022-09-24T06:33:31.173Z,12.26
2022-09-24T06:34:35.720Z,12.28
2022-09-24T06:35:44.006Z,12.47
2022-09-24T06:36:48.426Z,12.40
2022-09-24T06:37:54.083Z,12.55
2022-09-24T06:38:59.303Z,12.70
2022-09-24T06:40:03.470Z,12.70
2022-09-24T06:41:08.897Z,12.98
2022-09-24T06:42:14.541Z,13.01
2022-09-24T06:43:19.373Z,13.06
2022-09-24T06:44:23.685Z,12.97
2022-09-24T06:45:28.466Z,13.13
2022-09-24T06:46:32.459Z,13.26
2022-09-24T06:47:36.821Z,13.32
2022-09-24T06:48:40.612Z,13.11
2022-09-24T06:49:44.669Z,13.27
2022-09-24T06:50:49.206Z,13.20
2022-09-24T06:51:56.191Z,13.30
2022-09-24T06:53:00.414Z,13.24
2022-09-24T06:56:06.198Z,13.57
2022-09-24T06:57:10.145Z,13.62
2022-09-24T06:58:18.348Z,13.67
2022-09-24T06:59:22.288Z,13.65
2022-09-24T07:00:26.131Z,13.84
2022-09-24T07:01:30.538Z,13.91
2022-09-24T07:02:34.793Z,13.98
2022-09-24T07:03:39.576Z,13.93
2022-09-24T07:04:43.354Z,14.11
2022-09-24T07:05:47.161Z,14.16
2022-09-24T07:07:29.002Z,14.29
2022-09-24T07:08:34.101Z,14.41
2022-09-24T07:09:40.956Z,14.52
2022-09-24T07:10:48.489Z,14.64
2022-09-24T07:11:52.989Z,14.68
2022-09-24T07:12:57.501Z,14.90
2022-09-24T07:14:02.219Z,15.04
2022-09-24T07:15:07.074Z,15.24
2022-09-24T07:16:10.840Z,15.45
2022-09-24T07:17:14.899Z,15.61
2022-09-24T07:18:20.539Z,15.95
2022-09-24T07:19:25.403Z,16.26
2022-09-24T07:20:29.900Z,16.53
2022-09-24T07:21:35.538Z,16.92
2022-09-24T07:22:43.789Z,17.28
2022-09-24T07:23:48.178Z,17.67
2022-09-24T07:24:52.552Z,18.09
2022-09-24T07:25:57.980Z,18.68
2022-09-24T07:27:05.343Z,19.20
2022-09-24T07:28:13.282Z,19.62
2022-09-24T07:29:17.792Z,20.07
2022-09-24T07:30:22.287Z,20.43
2022-09-24T07:31:27.361Z,20.81
2022-09-24T07:32:31.116Z,21.25
2022-09-24T07:33:35.020Z,21.62
2022-09-24T07:34:40.580Z,22.13
2022-09-24T07:35:44.532Z,22.37
2022-09-24T07:36:49.296Z,22.84
2022-09-24T07:38:08.919Z,23.30
2022-09-24T07:39:12.751Z,23.40
2022-09-24T07:40:16.666Z,23.74
2022-09-24T07:41:20.676Z,24.01
2022-09-24T07:42:27.125Z,24.13
2022-09-24T07:43:33.646Z,24.26
2022-09-24T07:44:38.426Z,24.25
2022-09-24T07:45:43.291Z,24.42
2022-09-24T07:46:53.638Z,24.44
2022-09-24T07:48:02.644Z,24.58
2022-09-24T07:49:06.582Z,24.65
2022-09-24T07:50:12.355Z,24.68
2022-09-24T07:51:16.595Z,24.58
2022-09-24T07:52:20.676Z,24.46
2022-09-24T07:53:24.596Z,24.36
2022-09-24T07:54:30.360Z,24.19
2022-09-24T07:55:41.347Z,24.01
2022-09-24T07:56:45.204Z,23.77
2022-09-24T07:57:53.296Z,23.60
2022-09-24T07:58:57.037Z,23.26
2022-09-24T08:00:00.748Z,23.33
2022-09-24T08:01:04.652Z,23.33
2022-09-24T08:02:17.551Z,23.11
2022-09-24T08:03:22.546Z,23.27
2022-09-24T08:04:26.896Z,23.45
2022-09-24T08:05:30.894Z,23.48
2022-09-24T08:06:41.382Z,23.33
2022-09-24T08:07:56.153Z,23.51
2022-09-24T08:09:00.508Z,23.45
2022-09-24T08:10:05.042Z,23.49
2022-09-24T08:11:13.520Z,23.56
2022-09-24T08:12:21.570Z,23.54
2022-09-24T08:13:28.124Z,23.54
2022-09-24T08:14:31.950Z,23.57
2022-09-24T08:15:35.893Z,23.54
2022-09-24T08:16:40.790Z,23.55
2022-09-24T08:17:44.779Z,23.41
2022-09-24T08:18:48.776Z,23.14
2022-09-24T08:19:57.155Z,23.07
2022-09-24T08:21:11.307Z,23.02
2022-09-24T08:22:15.457Z,23.08
2022-09-24T08:23:20.950Z,23.07
2022-09-24T08:24:24.611Z,23.20
2022-09-24T08:25:28.595Z,23.24
2022-09-24T08:26:33.702Z,23.25
2022-09-24T08:27:37.887Z,23.32
2022-09-24T08:28:43.114Z,23.33
2022-09-24T08:29:47.461Z,23.31
2022-09-24T08:30:51.351Z,23.18
2022-09-24T08:31:55.473Z,23.08
2022-09-24T08:32:59.820Z,22.90
2022-09-24T08:34:03.585Z,22.86
2022-09-24T08:35:08.787Z,22.72
2022-09-24T08:36:13.247Z,22.49
2022-09-24T08:37:17.138Z,22.52
2022-09-24T08:38:21.260Z,22.49
2022-09-24T08:39:25.439Z,22.12
2022-09-24T08:40:34.865Z,22.02
2022-09-24T08:41:57.372Z,21.91
2022-09-24T08:43:23.078Z,21.66
2022-09-24T08:45:00.056Z,21.47
2022-09-24T08:46:59.149Z,21.18
2022-09-24T08:48:22.977Z,20.90
2022-09-24T08:49:40.478Z,20.96
2022-09-24T08:51:01.549Z,21.06
2022-09-24T08:52:32.879Z,21.38
2022-09-24T08:53:59.052Z,21.53
2022-09-24T08:55:21.740Z,21.88
2022-09-24T08:56:37.553Z,22.15
2022-09-24T08:58:21.151Z,22.46
2022-09-24T08:59:38.117Z,22.62
2022-09-24T09:01:31.906Z,22.83
2022-09-24T09:02:54.829Z,22.92
2022-09-24T09:04:24.094Z,22.93
2022-09-24T09:05:55.426Z,23.21
2022-09-24T09:07:15.004Z,23.45
2022-09-24T09:09:06.336Z,24.01
2022-09-24T09:10:28.031Z,24.55
2022-09-24T09:11:37.061Z,24.83
2022-09-24T09:13:02.794Z,25.27
2022-09-24T09:15:07.107Z,25.61
2022-09-24T09:16:16.341Z,25.60
2022-09-24T09:17:35.067Z,25.42
2022-09-24T09:18:46.056Z,25.24
2022-09-24T09:19:57.654Z,24.96
2022-09-24T09:21:35.739Z,24.60
2022-09-24T09:22:49.617Z,24.36
2022-09-24T09:23:58.210Z,24.04
2022-09-24T09:25:28.592Z,23.72
2022-09-24T09:26:32.411Z,23.52
2022-09-24T09:27:36.849Z,23.26
2022-09-24T09:28:41.027Z,22.93
2022-09-24T09:29:59.949Z,22.64
2022-09-24T09:31:19.506Z,22.33
2022-09-24T09:32:55.583Z,21.86
2022-09-24T09:34:05.947Z,21.58
2022-09-24T09:35:31.898Z,21.31
2022-09-24T09:36:53.567Z,21.18
2022-09-24T09:38:12.388Z,20.98
2022-09-24T09:40:10.409Z,20.81
2022-09-24T09:41:23.434Z,20.73
2022-09-24T09:42:34.444Z,20.56
2022-09-24T09:43:38.621Z,20.61
2022-09-24T09:44:45.081Z,20.60
2022-09-24T09:46:39.508Z,20.46
2022-09-24T09:47:56.388Z,20.49
2022-09-24T09:49:07.775Z,20.50
2022-09-24T09:50:39.280Z,20.38
2022-09-24T09:51:48.822Z,20.37
2022-09-24T09:52:53.012Z,20.31
2022-09-24T09:54:03.011Z,20.15
2022-09-24T09:55:08.066Z,20.05
2022-09-24T09:56:13.382Z,20.00
2022-09-24T09:57:25.201Z,19.89
2022-09-24T09:58:32.883Z,19.90
2022-09-24T09:59:36.643Z,19.88
2022-09-24T10:00:40.725Z,19.87
2022-09-24T10:01:56.043Z,19.71
2022-09-24T10:03:00.329Z,19.68
2022-09-24T10:04:05.878Z,19.66
2022-09-24T10:05:27.536Z,19.76
2022-09-24T10:06:35.359Z,19.72
2022-09-24T10:07:46.519Z,19.68
2022-09-24T10:08:50.508Z,19.70
2022-09-24T10:10:24.568Z,19.68
2022-09-24T10:11:28.539Z,19.56
2022-09-24T10:12:32.618Z,19.68
2022-09-24T10:13:36.578Z,19.58
2022-09-24T10:14:40.387Z,19.49
2022-09-24T10:15:59.519Z,19.49
2022-09-24T10:17:06.061Z,19.51
2022-09-24T10:18:15.766Z,19.47
2022-09-24T10:19:29.042Z,19.42
2022-09-24T10:20:34.743Z,19.28
2022-09-24T10:21:38.538Z,19.33
2022-09-24T10:22:53.808Z,19.25
2022-09-24T10:24:09.369Z,19.23
2022-09-24T10:25:39.415Z,19.18
2022-09-24T10:26:46.024Z,19.12
2022-09-24T10:27:49.883Z,19.01
2022-09-24T10:29:12.075Z,19.01
2022-09-24T10:30:36.081Z,18.85
2022-09-24T10:31:42.610Z,18.99
2022-09-24T10:32:49.196Z,19.02
2022-09-24T10:33:57.980Z,19.01
2022-09-24T10:35:38.984Z,19.06
2022-09-24T10:37:04.243Z,18.88
2022-09-24T10:38:25.418Z,18.93
2022-09-24T10:39:31.397Z,18.85
2022-09-24T10:40:42.150Z,18.90
2022-09-24T10:41:57.447Z,18.79
2022-09-24T10:43:06.825Z,18.64
2022-09-24T10:44:12.348Z,18.56
2022-09-24T10:45:16.666Z,18.63
2022-09-24T10:46:40.560Z,18.62
2022-09-24T10:48:08.907Z,18.67
2022-09-24T10:50:23.581Z,18.73
2022-09-24T10:51:44.969Z,18.73
2022-09-24T10:53:03.841Z,18.70
2022-09-24T10:54:26.589Z,18.71
2022-09-24T10:55:45.805Z,18.70
2022-09-24T10:56:57.002Z,18.64
2022-09-24T10:58:44.946Z,18.67
2022-09-24T11:00:10.362Z,18.66
2022-09-24T11:01:27.241Z,18.63
2022-09-24T11:02:51.854Z,18.55
2022-09-24T11:04:18.473Z,18.52
2022-09-24T11:05:24.497Z,18.51
2022-09-24T11:07:08.495Z,18.52
2022-09-24T11:08:37.630Z,18.54
2022-09-24T11:10:10.271Z,18.44
2022-09-24T11:12:00.024Z,18.55
2022-09-24T11:13:23.985Z,18.50
2022-09-24T11:14:34.236Z,18.55
2022-09-24T11:16:17.220Z,18.55
2022-09-24T11:17:40.521Z,18.58
2022-09-24T11:19:23.690Z,18.62
2022-09-24T11:20:36.810Z,18.64
2022-09-24T11:22:00.804Z,18.64
2022-09-24T11:23:16.531Z,18.67
2022-09-24T11:24:38.709Z,18.67
2022-09-24T11:26:11.834Z,18.69
2022-09-24T11:27:55.832Z,18.69
2022-09-24T11:29:21.676Z,18.63
2022-09-24T11:31:05.601Z,18.62
2022-09-24T11:32:18.277Z,18.60
2022-09-24T11:33:53.739Z,18.59
2022-09-24T11:35:04.296Z,18.60
2022-09-24T11:36:29.929Z,18.55
2022-09-24T11:38:18.341Z,18.59
2022-09-24T11:41:41.336Z,18.67
2022-09-24T11:43:34.267Z,18.69
2022-09-24T11:45:00.683Z,18.69
2022-09-24T11:46:28.619Z,18.64
2022-09-24T11:48:09.026Z,18.62
2022-09-24T11:49:33.474Z,18.56
2022-09-24T11:51:17.496Z,18.52
2022-09-24T11:52:46.078Z,18.62
2022-09-24T11:54:12.072Z,18.37
2022-09-24T11:58:33.825Z,18.49
2022-09-24T11:59:48.716Z,18.55
2022-09-24T12:01:15.491Z,18.57
2022-09-24T12:11:10.379Z,18.44
2022-09-24T12:12:43.549Z,18.37
2022-09-24T12:13:59.980Z,18.64
2022-09-24T12:15:21.755Z,18.69
2022-09-24T12:16:34.754Z,18.66
2022-09-24T12:18:08.761Z,18.65
2022-09-24T12:21:28.274Z,18.77
2022-09-24T12:22:36.206Z,18.74
2022-09-24T12:23:45.127Z,18.71
2022-09-24T12:25:00.790Z,18.76
2022-09-24T12:26:06.854Z,18.77
2022-09-24T12:27:25.967Z,18.78
2022-09-24T12:29:04.508Z,18.80
2022-09-24T12:30:48.193Z,18.80
2022-09-24T12:32:42.177Z,18.82
2022-09-24T12:33:54.959Z,18.85
2022-09-24T12:35:14.794Z,18.89
2022-09-24T12:36:29.129Z,18.93
2022-09-24T12:37:41.032Z,18.86
2022-09-24T12:38:57.205Z,19.07
2022-09-24T12:40:19.083Z,19.10
2022-09-24T12:41:40.947Z,19.15
2022-09-24T12:42:54.298Z,19.19
2022-09-24T12:44:21.729Z,19.15
2022-09-24T12:45:27.486Z,19.31
2022-09-24T12:46:42.190Z,19.32
2022-09-24T12:48:06.448Z,19.34
2022-09-24T12:49:25.408Z,19.31
2022-09-24T12:50:38.728Z,19.25
2022-09-24T12:51:42.450Z,19.20
2022-09-24T12:52:46.780Z,19.10
2022-09-24T12:54:08.513Z,19.01
2022-09-24T12:55:31.939Z,18.89
2022-09-24T12:56:35.774Z,18.86
2022-09-24T12:57:58.584Z,18.81
2022-09-24T12:59:05.765Z,18.79
2022-09-24T13:00:47.368Z,18.74
2022-09-24T13:01:51.276Z,18.73
2022-09-24T13:02:55.321Z,18.75
2022-09-24T13:04:17.011Z,18.64
2022-09-24T13:05:23.461Z,18.61
2022-09-24T13:06:37.807Z,18.57
2022-09-24T13:07:41.747Z,18.54
2022-09-24T13:08:46.212Z,18.52
2022-09-24T13:09:49.960Z,18.55
2022-09-24T13:11:24.570Z,18.51
2022-09-24T13:12:33.519Z,18.47
2022-09-24T13:13:43.691Z,18.45
2022-09-24T13:15:02.773Z,18.42
2022-09-24T13:16:19.021Z,18.43
2022-09-24T13:17:24.090Z,18.43
2022-09-24T13:18:28.917Z,18.43
2022-09-24T13:19:47.319Z,18.36
2022-09-24T13:21:05.687Z,18.39
2022-09-24T13:22:30.482Z,18.35
2022-09-24T13:23:48.124Z,18.35
2022-09-24T13:25:07.954Z,18.34
2022-09-24T13:26:28.931Z,18.34
2022-09-24T13:27:32.412Z,18.35
2022-09-24T13:29:05.850Z,18.37
2022-09-24T13:30:12.696Z,18.39
2022-09-24T13:31:22.564Z,18.41
2022-09-24T13:32:27.421Z,18.42
2022-09-24T13:33:45.099Z,18.40
2022-09-24T13:34:51.741Z,18.41
2022-09-24T13:36:17.408Z,18.50
2022-09-24T13:37:41.657Z,18.53
2022-09-24T13:39:15.140Z,18.63
2022-09-24T13:40:27.268Z,18.64
2022-09-24T13:41:45.972Z,18.79
2022-09-24T13:43:41.242Z,18.87
2022-09-24T13:45:04.096Z,18.85
2022-09-24T13:46:21.302Z,18.94
2022-09-24T13:47:59.981Z,18.93
2022-09-24T13:49:52.503Z,18.77
2022-09-24T13:51:13.555Z,18.78
2022-09-24T13:52:49.366Z,18.88
2022-09-24T13:54:22.937Z,18.70
2022-09-24T13:55:54.221Z,18.57
2022-09-24T13:57:20.084Z,18.78
2022-09-24T13:58:39.109Z,18.56
2022-09-24T13:59:43.907Z,18.50
2022-09-24T14:00:49.642Z,18.54
2022-09-24T14:01:59.422Z,18.41
2022-09-24T14:03:26.392Z,18.36
2022-09-24T14:04:34.053Z,18.27
2022-09-24T14:05:38.368Z,18.37
2022-09-24T14:06:57.363Z,18.27
2022-09-24T14:08:21.572Z,18.06
2022-09-24T14:09:33.323Z,17.99
2022-09-24T14:10:37.684Z,17.98
2022-09-24T14:11:54.337Z,18.01
2022-09-24T14:13:24.708Z,18.05
2022-09-24T14:14:31.322Z,18.04
2022-09-24T14:15:36.418Z,18.05
2022-09-24T14:16:40.651Z,17.90
2022-09-24T14:17:58.594Z,17.93
2022-09-24T14:19:05.394Z,18.03
2022-09-24T14:20:16.213Z,17.90
2022-09-24T14:21:47.091Z,18.06
2022-09-24T14:22:53.438Z,18.06
2022-09-24T14:24:13.751Z,18.09
2022-09-24T14:25:32.527Z,18.06
2022-09-24T14:27:00.505Z,18.15
2022-09-24T14:28:08.113Z,18.00
2022-09-24T14:29:24.308Z,17.91
2022-09-24T14:30:32.477Z,18.09
2022-09-24T14:31:57.283Z,17.96
2022-09-24T14:33:16.903Z,17.92
2022-09-24T14:34:37.566Z,17.92
2022-09-24T14:35:49.587Z,17.91
2022-09-24T14:37:00.747Z,17.95
2022-09-24T14:38:29.767Z,17.86
2022-09-24T14:39:42.448Z,17.98
2022-09-24T14:40:55.315Z,17.94
2022-09-24T14:41:59.379Z,17.93
2022-09-24T14:43:03.632Z,18.12
2022-09-24T14:44:19.110Z,18.11
2022-09-24T14:45:34.520Z,18.12
2022-09-24T14:46:53.049Z,18.04
2022-09-24T14:48:06.972Z,18.04
2022-09-24T14:49:22.728Z,18.07
2022-09-24T14:50:41.256Z,18.05
2022-09-24T14:52:03.981Z,17.95
2022-09-24T14:53:36.217Z,17.97
2022-09-24T14:54:41.203Z,17.90
2022-09-24T14:55:46.945Z,17.87
2022-09-24T14:56:50.632Z,17.88
2022-09-24T14:57:57.740Z,17.97
2022-09-24T14:59:01.747Z,17.94
2022-09-24T15:00:37.948Z,17.99
2022-09-24T15:01:44.390Z,17.77
2022-09-24T15:03:12.563Z,17.77
2022-09-24T15:04:27.794Z,17.73
2022-09-24T15:05:32.468Z,17.75
2022-09-24T15:06:38.505Z,17.71
2022-09-24T15:07:46.216Z,17.56
2022-09-24T15:09:30.694Z,17.65
2022-09-24T15:10:35.764Z,17.69
2022-09-24T15:11:43.617Z,17.55
2022-09-24T15:12:50.372Z,17.33
2022-09-24T15:14:25.312Z,17.58
2022-09-24T15:15:32.347Z,17.37
2022-09-24T15:16:37.438Z,17.31
2022-09-24T15:17:41.756Z,17.44
2022-09-24T15:18:47.801Z,17.45
2022-09-24T15:19:55.039Z,17.27
2022-09-24T15:21:04.521Z,17.43
2022-09-24T15:22:10.050Z,17.33
2022-09-24T15:23:13.710Z,17.43
2022-09-24T15:24:18.476Z,17.32
2022-09-24T15:25:23.111Z,17.42
2022-09-24T15:26:33.472Z,17.43
2022-09-24T15:27:45.023Z,17.26
2022-09-24T15:28:49.166Z,17.19
2022-09-24T15:29:54.814Z,17.45
2022-09-24T15:30:58.763Z,17.43
2022-09-24T15:32:03.030Z,17.44
2022-09-24T15:33:17.734Z,17.37
2022-09-24T15:34:21.495Z,17.42
2022-09-24T15:35:25.427Z,17.37
2022-09-24T15:36:29.492Z,17.20
2022-09-24T15:37:33.245Z,17.37
2022-09-24T15:38:36.969Z,17.23
2022-09-24T15:39:46.502Z,17.29
2022-09-24T15:40:52.162Z,17.40
2022-09-24T15:41:56.117Z,17.21
2022-09-24T15:42:59.884Z,17.40
2022-09-24T15:44:03.634Z,17.38
2022-09-24T15:45:22.217Z,17.30
2022-09-24T15:46:27.738Z,17.34
2022-09-24T15:47:31.765Z,17.13
2022-09-24T15:48:35.564Z,17.25
2022-09-24T15:49:39.394Z,17.23
2022-09-24T15:50:46.854Z,17.14